sim
Sign-in with your pilot id or email,
or register
Callsign
Passwort

Schedule Details

Flight Number: EWG652 (1)
Departure: Cologne Bonn Airport (EDDK) at 10:05
Arrival: Thessaloniki International Airport (LGTS) at 12:40
Route: Eurowings Passenger Schedule. Enter filed route here before submitting Pirep.

Weather Information
Getting current METAR information for EDDK 211720Z 08003KT CAVOK 22/09 Q1026 NOSIG
Getting current METAR information for LGTS 211720Z 17006KT CAVOK 30/12 Q1016 NOSIG

Schedule Frequency

Route Map